Time;durP1;ratioP1;P1;durP2;ratioP2;P2;SDS_P1;SDS_P2;PMS_P1;PMS_P2;Temp;Humidity;BMP_temperature;BMP_pressure;BME280_temperature;BME280_humidity;BME280_pressure;Samples;Min_cycle;Max_cycle;Signal;HPM_P1;HPM_P2
2023/10/30 00:01:21;;;;;;;3.60;2.72;;;13.10;72.50;;;;;;5076712;28;20388;-69
2023/10/30 00:03:46;;;;;;;4.47;2.70;;;13.10;72.70;;;;;;5076589;28;20047;-68
2023/10/30 00:06:12;;;;;;;7.40;3.10;;;13.10;73.00;;;;;;5076639;28;20492;-69
2023/10/30 00:08:37;;;;;;;5.30;2.50;;;13.10;73.00;;;;;;5076452;28;20025;-69
2023/10/30 00:11:03;;;;;;;5.28;2.78;;;13.10;73.00;;;;;;5076331;28;20448;-69
2023/10/30 00:13:28;;;;;;;6.57;2.90;;;13.20;72.90;;;;;;5076201;28;20031;-69
2023/10/30 00:15:55;;;;;;;5.43;2.75;;;13.20;72.60;;;;;;5076355;28;20427;-69
2023/10/30 00:18:20;;;;;;;7.22;3.15;;;13.20;72.60;;;;;;5076605;28;20097;-70
2023/10/30 00:20:46;;;;;;;4.22;2.65;;;13.10;72.80;;;;;;5076254;28;20469;-69
2023/10/30 00:23:11;;;;;;;4.78;2.60;;;13.10;72.90;;;;;;5076033;28;20017;-69
2023/10/30 00:25:37;;;;;;;4.80;2.83;;;13.10;72.90;;;;;;5076161;28;20085;-69
2023/10/30 00:28:03;;;;;;;6.15;3.00;;;13.10;72.90;;;;;;5075922;28;20058;-69
2023/10/30 00:30:29;;;;;;;4.50;2.55;;;13.20;72.90;;;;;;5076263;28;20089;-68
2023/10/30 00:32:54;;;;;;;7.05;2.90;;;13.10;72.80;;;;;;5075933;28;20489;-69
2023/10/30 00:35:20;;;;;;;3.75;2.38;;;13.20;73.00;;;;;;5075871;28;20031;-68
2023/10/30 00:37:45;;;;;;;5.78;3.08;;;13.20;73.00;;;;;;5074574;28;20029;-68
2023/10/30 00:40:12;;;;;;;4.07;2.20;;;13.20;73.00;;;;;;5076127;28;20033;-68
2023/10/30 00:42:38;;;;;;;3.83;2.55;;;13.20;73.20;;;;;;5075792;28;20081;-70
2023/10/30 00:45:04;;;;;;;3.78;2.63;;;13.10;73.40;;;;;;5075534;28;20020;-69
2023/10/30 00:47:30;;;;;;;3.97;2.80;;;13.10;73.50;;;;;;5075772;28;20422;-69
2023/10/30 00:49:56;;;;;;;4.78;2.60;;;13.10;73.70;;;;;;5075669;28;20087;-69
2023/10/30 00:52:21;;;;;;;3.20;2.38;;;13.10;73.70;;;;;;5075478;28;20442;-69
2023/10/30 00:54:47;;;;;;;4.03;2.50;;;13.10;73.80;;;;;;5075557;28;20055;-69
2023/10/30 00:57:13;;;;;;;5.50;2.65;;;13.10;73.80;;;;;;5075589;28;20095;-69
2023/10/30 00:59:38;;;;;;;4.45;2.55;;;13.10;73.90;;;;;;5075058;28;20148;-69
2023/10/30 01:02:04;;;;;;;6.65;2.90;;;13.00;74.20;;;;;;5075364;28;20047;-68
2023/10/30 01:04:30;;;;;;;4.20;2.72;;;13.00;74.30;;;;;;5075456;28;20033;-68
2023/10/30 01:06:55;;;;;;;3.85;2.10;;;12.90;74.20;;;;;;5075233;28;20028;-68
2023/10/30 01:09:21;;;;;;;3.47;2.30;;;12.90;74.80;;;;;;5075202;28;20120;-69
2023/10/30 01:11:46;;;;;;;3.05;2.08;;;12.90;75.10;;;;;;5075110;28;20091;-70
2023/10/30 01:14:12;;;;;;;4.20;2.22;;;12.90;75.20;;;;;;5075211;28;20032;-69
2023/10/30 01:16:37;;;;;;;6.13;2.63;;;12.80;74.90;;;;;;5073723;28;20036;-69
2023/10/30 01:19:03;;;;;;;3.55;2.45;;;12.80;74.80;;;;;;5075133;28;20021;-69
2023/10/30 01:21:28;;;;;;;5.90;2.60;;;12.80;74.50;;;;;;5075099;28;20036;-69
2023/10/30 01:23:54;;;;;;;5.53;2.95;;;12.80;74.40;;;;;;5074985;28;20024;-69
2023/10/30 01:26:19;;;;;;;5.20;2.55;;;12.70;75.10;;;;;;5075029;28;20060;-70
2023/10/30 01:28:45;;;;;;;4.18;2.88;;;12.70;75.80;;;;;;5073590;28;20067;-69
2023/10/30 01:31:11;;;;;;;5.82;3.05;;;12.50;78.40;;;;;;5074916;28;20103;-73
2023/10/30 01:33:36;;;;;;;4.90;2.72;;;12.30;77.50;;;;;;5074804;28;20384;-68
2023/10/30 01:36:02;;;;;;;3.95;2.58;;;12.10;78.70;;;;;;5074860;28;20630;-69
2023/10/30 01:38:27;;;;;;;2.78;2.47;;;12.00;79.50;;;;;;5074627;28;20020;-71
2023/10/30 01:40:53;;;;;;;5.57;3.03;;;12.00;79.60;;;;;;5074803;28;20021;-76
2023/10/30 01:43:32;;;;;;;4.95;2.85;;;11.90;80.80;;;;;;5074703;28;20032;-77
2023/10/30 01:45:58;;;;;;;3.83;2.67;;;11.70;81.50;;;;;;5074749;28;20025;-77
2023/10/30 01:48:25;;;;;;;4.13;2.17;;;11.60;82.30;;;;;;5074544;28;20025;-78
2023/10/30 01:50:51;;;;;;;3.08;2.40;;;11.40;82.50;;;;;;5074748;28;20032;-79
2023/10/30 01:53:20;;;;;;;4.80;2.50;;;11.30;82.40;;;;;;5074642;28;20043;-78
2023/10/30 01:55:47;;;;;;;4.97;2.17;;;11.30;82.40;;;;;;5074505;28;20081;-78
2023/10/30 01:58:13;;;;;;;4.07;2.30;;;11.40;82.30;;;;;;5074540;28;20013;-79
2023/10/30 02:00:39;;;;;;;3.53;2.22;;;11.40;82.10;;;;;;5074505;28;20017;-78
2023/10/30 02:03:05;;;;;;;4.50;2.30;;;11.50;81.60;;;;;;5074590;28;20553;-79
2023/10/30 02:05:31;;;;;;;3.35;2.30;;;11.50;80.90;;;;;;5074319;28;20043;-78
2023/10/30 02:07:56;;;;;;;3.22;2.42;;;11.50;80.30;;;;;;5074252;28;20024;-78
2023/10/30 02:10:22;;;;;;;3.05;1.98;;;11.60;80.20;;;;;;5072672;28;20071;-78
2023/10/30 02:12:49;;;;;;;4.13;2.35;;;11.60;80.00;;;;;;5073354;28;20025;-79
2023/10/30 02:15:15;;;;;;;3.92;2.42;;;11.60;79.90;;;;;;5074538;28;20047;-79
2023/10/30 02:17:41;;;;;;;3.35;2.20;;;11.70;79.90;;;;;;5074110;28;20108;-79
2023/10/30 02:20:07;;;;;;;3.80;2.50;;;11.70;79.70;;;;;;5073731;28;20029;-78
2023/10/30 02:22:32;;;;;;;3.50;2.17;;;11.70;79.40;;;;;;5073922;28;20372;-79
2023/10/30 02:24:58;;;;;;;4.13;2.40;;;11.70;79.30;;;;;;5072470;28;20063;-79
2023/10/30 02:27:24;;;;;;;3.72;2.30;;;11.70;80.30;;;;;;5073923;28;20048;-79
2023/10/30 02:29:50;;;;;;;3.15;2.50;;;11.70;79.40;;;;;;5072460;28;20071;-80
2023/10/30 02:32:16;;;;;;;2.78;2.30;;;11.70;79.40;;;;;;5073746;28;20020;-77
2023/10/30 02:34:41;;;;;;;3.40;1.90;;;11.70;79.20;;;;;;5074028;28;20033;-68
2023/10/30 02:37:07;;;;;;;3.22;2.55;;;11.70;78.90;;;;;;5073906;28;20025;-73
2023/10/30 02:39:33;;;;;;;3.65;2.42;;;11.70;78.90;;;;;;5073499;28;20056;-68
2023/10/30 02:42:02;;;;;;;3.00;2.42;;;11.70;78.80;;;;;;5073531;28;20025;-68
2023/10/30 02:44:29;;;;;;;3.22;2.63;;;11.70;78.60;;;;;;5072205;28;20033;-69
2023/10/30 02:46:55;;;;;;;5.53;2.60;;;11.70;78.60;;;;;;5073511;28;20020;-69
2023/10/30 02:49:22;;;;;;;6.20;2.80;;;11.60;78.40;;;;;;5073364;28;20091;-69
2023/10/30 02:51:48;;;;;;;4.57;2.65;;;11.70;78.60;;;;;;5073702;28;20024;-69
2023/10/30 02:54:13;;;;;;;5.82;2.50;;;11.70;78.50;;;;;;5073370;28;20104;-69
2023/10/30 02:56:39;;;;;;;3.75;2.50;;;11.70;78.60;;;;;;5073314;28;20032;-69
2023/10/30 02:59:04;;;;;;;4.32;2.65;;;11.60;78.60;;;;;;5073330;28;20039;-69
2023/10/30 03:01:30;;;;;;;4.47;2.75;;;11.60;78.50;;;;;;5073170;28;20089;-69
2023/10/30 03:03:55;;;;;;;2.65;2.30;;;11.70;78.70;;;;;;5073251;28;20024;-69
2023/10/30 03:06:21;;;;;;;8.20;2.83;;;11.60;78.60;;;;;;5073189;28;20027;-70
2023/10/30 03:08:47;;;;;;;4.25;2.10;;;11.60;78.70;;;;;;5073122;28;20077;-69
2023/10/30 03:11:12;;;;;;;5.28;2.17;;;11.50;78.20;;;;;;5071749;28;20446;-70
2023/10/30 03:13:38;;;;;;;7.00;2.63;;;11.40;77.90;;;;;;5073158;28;20448;-75
2023/10/30 03:16:04;;;;;;;3.47;2.63;;;11.30;78.30;;;;;;5073164;28;20032;-77
2023/10/30 03:18:30;;;;;;;3.85;2.47;;;11.20;79.10;;;;;;5073008;28;20250;-71
2023/10/30 03:20:56;;;;;;;3.75;2.40;;;11.10;79.50;;;;;;5072960;28;20021;-71
2023/10/30 03:23:21;;;;;;;3.20;2.50;;;11.10;79.80;;;;;;5072810;28;20540;-70
2023/10/30 03:25:47;;;;;;;5.40;2.90;;;11.10;79.90;;;;;;5073059;28;20435;-71
2023/10/30 03:28:13;;;;;;;5.53;2.35;;;11.10;80.10;;;;;;5073217;28;20465;-69
2023/10/30 03:30:38;;;;;;;4.05;2.63;;;11.00;79.80;;;;;;5072971;28;20060;-79
2023/10/30 03:33:04;;;;;;;4.55;2.65;;;11.00;79.40;;;;;;5073168;28;20025;-79
2023/10/30 03:35:31;;;;;;;8.30;2.60;;;11.00;79.20;;;;;;5073360;28;20653;-79
2023/10/30 03:37:57;;;;;;;3.95;2.40;;;11.00;79.20;;;;;;5073062;28;20100;-80
2023/10/30 03:40:22;;;;;;;4.15;2.53;;;10.90;79.20;;;;;;5073450;28;20125;-77
2023/10/30 03:42:48;;;;;;;3.85;2.65;;;10.90;79.30;;;;;;5074139;28;20024;-80
2023/10/30 03:45:13;;;;;;;3.53;2.08;;;10.90;79.40;;;;;;5074746;28;20035;-80
2023/10/30 03:47:40;;;;;;;5.75;2.67;;;10.90;79.40;;;;;;5081628;28;20025;-80
2023/10/30 03:50:08;;;;;;;4.22;2.78;;;10.90;79.70;;;;;;5073069;28;20098;-79
2023/10/30 03:52:33;;;;;;;6.95;2.80;;;10.90;79.80;;;;;;5073089;28;20025;-78
2023/10/30 03:55:03;;;;;;;3.75;2.30;;;10.90;80.10;;;;;;5071538;28;20094;-80
2023/10/30 03:57:29;;;;;;;6.65;2.50;;;10.90;79.60;;;;;;5071568;28;20410;-80
2023/10/30 03:59:54;;;;;;;3.30;2.05;;;10.80;78.80;;;;;;5072671;28;20028;-80
2023/10/30 04:02:20;;;;;;;3.83;2.08;;;10.70;78.70;;;;;;5072586;28;20044;-74
2023/10/30 04:04:45;;;;;;;3.85;2.15;;;10.70;78.90;;;;;;5072734;28;20048;-81
2023/10/30 04:07:12;;;;;;;3.20;1.90;;;10.70;79.00;;;;;;5072704;28;20082;-81
2023/10/30 04:09:37;;;;;;;3.90;2.00;;;10.60;78.90;;;;;;5072474;28;20515;-78
2023/10/30 04:12:03;;;;;;;7.80;3.15;;;10.60;79.20;;;;;;5072286;28;20049;-80
2023/10/30 04:14:32;;;;;;;6.10;2.47;;;10.60;79.50;;;;;;5072767;28;20032;-78
2023/10/30 04:16:59;;;;;;;5.03;2.67;;;10.60;79.70;;;;;;5072401;28;20521;-80
2023/10/30 04:19:24;;;;;;;5.28;2.33;;;10.50;79.50;;;;;;5072318;28;20025;-70
2023/10/30 04:21:50;;;;;;;6.47;2.85;;;10.50;79.80;;;;;;5072264;28;20107;-69
2023/10/30 04:24:15;;;;;;;3.92;2.78;;;10.50;79.70;;;;;;5070978;28;20059;-73
2023/10/30 04:26:41;;;;;;;5.43;3.25;;;10.40;79.70;;;;;;5072369;28;20020;-68
2023/10/30 04:29:06;;;;;;;7.50;2.75;;;10.40;80.70;;;;;;5072131;28;20032;-74
2023/10/30 04:31:32;;;;;;;8.15;3.10;;;10.40;79.70;;;;;;5072163;28;20028;-74
2023/10/30 04:33:57;;;;;;;4.25;3.38;;;10.40;79.70;;;;;;5072185;28;20025;-72
2023/10/30 04:36:23;;;;;;;8.18;3.60;;;10.30;80.40;;;;;;5074810;28;20073;-74
2023/10/30 04:38:50;;;;;;;8.82;5.95;;;10.40;80.40;;;;;;5075816;28;20107;-76
2023/10/30 04:41:15;;;;;;;11.80;6.10;;;10.40;80.30;;;;;;5075950;28;20031;-75
2023/10/30 04:43:41;;;;;;;7.88;4.95;;;10.40;80.10;;;;;;5075671;28;20028;-72
2023/10/30 04:46:06;;;;;;;5.60;4.25;;;10.40;80.00;;;;;;5075771;28;20044;-73
2023/10/30 04:48:33;;;;;;;4.97;4.07;;;10.40;80.30;;;;;;5075650;28;20373;-76
2023/10/30 04:50:59;;;;;;;5.20;2.88;;;10.40;80.60;;;;;;5075477;28;20031;-73
2023/10/30 04:53:25;;;;;;;2.80;2.50;;;10.40;80.50;;;;;;5075538;28;20027;-76
2023/10/30 04:55:51;;;;;;;6.88;3.00;;;10.40;80.60;;;;;;5075409;28;20385;-71
2023/10/30 04:58:17;;;;;;;7.70;3.33;;;10.30;80.80;;;;;;5073992;28;20025;-71
2023/10/30 05:00:45;;;;;;;5.30;3.13;;;10.30;81.30;;;;;;5075186;28;20102;-70
2023/10/30 05:03:10;;;;;;;8.15;3.53;;;10.30;81.50;;;;;;5075273;28;20034;-73
2023/10/30 05:05:36;;;;;;;5.18;3.50;;;10.20;81.30;;;;;;5075232;28;20040;-70
2023/10/30 05:08:02;;;;;;;4.13;3.35;;;10.20;81.80;;;;;;5074005;28;20065;-75
2023/10/30 05:10:27;;;;;;;9.60;3.53;;;10.20;81.80;;;;;;5073707;28;20128;-73
2023/10/30 05:12:53;;;;;;;6.32;4.22;;;10.20;81.80;;;;;;5075196;28;20020;-73
2023/10/30 05:15:21;;;;;;;9.05;5.43;;;10.20;81.70;;;;;;5075386;28;20021;-72
2023/10/30 05:17:47;;;;;;;15.95;6.90;;;10.10;82.20;;;;;;5073587;28;20077;-79
2023/10/30 05:20:12;;;;;;;17.75;8.02;;;10.00;82.90;;;;;;5075390;28;20483;-82
2023/10/30 05:22:39;;;;;;;28.23;8.20;;;10.00;84.90;;;;;;5075585;28;20025;-82
2023/10/30 05:25:07;;;;;;;10.95;7.80;;;9.90;86.00;;;;;;5075133;28;20477;-82
2023/10/30 05:27:33;;;;;;;11.80;7.57;;;9.80;86.20;;;;;;5075197;28;20058;-83
2023/10/30 05:29:59;;;;;;;11.40;8.00;;;9.80;86.70;;;;;;5075024;28;20107;-81
2023/10/30 05:32:25;;;;;;;10.20;7.07;;;9.80;86.60;;;;;;5075181;28;20024;-81
2023/10/30 05:34:52;;;;;;;9.40;7.85;;;9.90;86.40;;;;;;5075251;28;20497;-81
2023/10/30 05:37:19;;;;;;;10.88;7.50;;;9.90;86.40;;;;;;5075123;28;20029;-81
2023/10/30 05:39:44;;;;;;;10.32;8.05;;;9.80;86.40;;;;;;5075169;28;20082;-81
2023/10/30 05:42:10;;;;;;;10.80;7.18;;;9.80;86.70;;;;;;5075869;28;20025;-79
2023/10/30 05:44:36;;;;;;;8.80;6.63;;;9.80;86.70;;;;;;5073706;28;20033;-78
2023/10/30 05:47:02;;;;;;;8.85;7.25;;;9.80;86.40;;;;;;5074847;28;20020;-76
2023/10/30 05:49:28;;;;;;;10.05;7.18;;;9.80;85.80;;;;;;5073444;28;20082;-82
2023/10/30 05:51:54;;;;;;;8.77;6.75;;;9.80;85.70;;;;;;5074916;28;20033;-81
2023/10/30 05:54:20;;;;;;;8.27;5.63;;;9.80;85.50;;;;;;5074689;28;20492;-82
2023/10/30 05:56:46;;;;;;;7.75;4.95;;;9.80;84.70;;;;;;5074655;28;20033;-78
2023/10/30 05:59:12;;;;;;;6.88;4.53;;;9.70;84.10;;;;;;5074457;28;20043;-76
2023/10/30 06:01:37;;;;;;;7.70;5.13;;;9.70;84.00;;;;;;5074385;28;20074;-77
2023/10/30 06:04:03;;;;;;;7.45;5.00;;;9.70;83.70;;;;;;5074930;28;20050;-77
2023/10/30 06:06:28;;;;;;;6.88;5.10;;;9.60;83.50;;;;;;5075328;28;20021;-80
2023/10/30 06:08:54;;;;;;;9.93;6.15;;;9.60;83.60;;;;;;5074587;28;20469;-78
2023/10/30 06:11:20;;;;;;;9.68;6.47;;;9.60;84.10;;;;;;5075571;28;20044;-77
2023/10/30 06:13:45;;;;;;;7.78;5.75;;;9.50;84.60;;;;;;5077913;28;20046;-81
2023/10/30 06:16:15;;;;;;;9.27;6.95;;;9.50;84.60;;;;;;5074618;28;20184;-79
2023/10/30 06:18:41;;;;;;;11.63;9.25;;;9.60;84.80;;;;;;5074141;28;20020;-81
2023/10/30 06:21:07;;;;;;;12.63;9.02;;;9.50;85.60;;;;;;5061163;28;20029;-83
2023/10/30 06:23:34;;;;;;;11.82;8.88;;;9.60;85.90;;;;;;5052779;28;20128;-82
2023/10/30 06:25:59;;;;;;;12.60;9.45;;;9.60;85.80;;;;;;5053621;28;20032;-81
2023/10/30 06:28:25;;;;;;;13.40;10.68;;;9.70;85.70;;;;;;5054030;28;20021;-80
2023/10/30 06:30:50;;;;;;;15.63;10.63;;;9.70;85.60;;;;;;5054051;28;20033;-79
2023/10/30 06:33:16;;;;;;;14.50;11.88;;;9.70;85.90;;;;;;5053793;28;20020;-79
2023/10/30 06:35:42;;;;;;;14.23;11.65;;;9.80;86.70;;;;;;5053756;28;20355;-79
2023/10/30 06:38:07;;;;;;;14.75;12.27;;;9.80;86.90;;;;;;5053634;28;20029;-80
2023/10/30 06:40:33;;;;;;;12.23;10.93;;;9.90;86.90;;;;;;5053756;28;20075;-79
2023/10/30 06:42:58;;;;;;;16.35;11.95;;;9.90;86.90;;;;;;5053420;28;20028;-79
2023/10/30 06:45:24;;;;;;;14.38;11.50;;;10.00;86.50;;;;;;5053456;28;20029;-79
2023/10/30 06:47:50;;;;;;;18.27;13.30;;;10.00;86.40;;;;;;5053321;28;20027;-73
2023/10/30 06:50:15;;;;;;;16.08;12.88;;;10.10;86.30;;;;;;5053253;28;20039;-79
2023/10/30 06:52:41;;;;;;;13.38;11.98;;;10.10;86.00;;;;;;5051985;28;20032;-79
2023/10/30 06:55:07;;;;;;;14.27;12.40;;;10.20;86.00;;;;;;5053060;28;20422;-79
2023/10/30 06:57:32;;;;;;;12.80;11.50;;;10.20;85.50;;;;;;5052581;28;20438;-79
2023/10/30 06:59:58;;;;;;;13.40;10.38;;;10.30;85.40;;;;;;5053120;28;20064;-80
2023/10/30 07:02:24;;;;;;;12.10;9.93;;;10.40;84.80;;;;;;5053223;28;20043;-78
2023/10/30 07:04:49;;;;;;;29.67;20.67;;;10.40;84.50;;;;;;5053036;28;20025;-79
2023/10/30 07:07:15;;;;;;;12.45;11.13;;;10.50;84.30;;;;;;5053000;28;20052;-81
2023/10/30 07:09:41;;;;;;;12.25;10.95;;;10.60;83.70;;;;;;5052855;28;20033;-78
2023/10/30 07:12:07;;;;;;;11.55;9.80;;;10.70;83.30;;;;;;5052914;28;20049;-79
2023/10/30 07:14:33;;;;;;;12.85;9.55;;;10.70;83.00;;;;;;5053064;28;20021;-78
2023/10/30 07:16:58;;;;;;;11.27;10.13;;;10.70;82.80;;;;;;5052931;28;20025;-78
2023/10/30 07:19:24;;;;;;;14.95;9.68;;;10.70;82.90;;;;;;5052850;28;20107;-72
2023/10/30 07:21:51;;;;;;;11.60;9.73;;;10.60;82.90;;;;;;5052908;28;20716;-79
2023/10/30 07:24:17;;;;;;;13.73;9.93;;;10.60;83.00;;;;;;5052593;28;20361;-78
2023/10/30 07:26:43;;;;;;;11.35;9.07;;;10.70;82.90;;;;;;5052747;28;20024;-80
2023/10/30 07:29:08;;;;;;;10.93;9.30;;;10.70;82.90;;;;;;5052705;28;20511;-80
2023/10/30 07:31:34;;;;;;;11.77;9.60;;;10.70;82.60;;;;;;5052471;28;20100;-76
2023/10/30 07:33:59;;;;;;;10.02;9.00;;;10.70;82.60;;;;;;5052789;28;20160;-79
2023/10/30 07:36:26;;;;;;;10.23;8.48;;;10.80;82.30;;;;;;5052475;28;20025;-82
2023/10/30 07:38:51;;;;;;;10.73;8.73;;;10.80;82.10;;;;;;5052618;28;20017;-80
2023/10/30 07:41:17;;;;;;;10.57;5.88;;;10.90;81.80;;;;;;5052674;28;20597;-78
2023/10/30 07:43:43;;;;;;;9.15;6.00;;;10.90;81.30;;;;;;5052490;28;20104;-78
2023/10/30 07:46:12;;;;;;;10.65;8.27;;;10.90;81.80;;;;;;5052719;28;20084;-81
2023/10/30 07:48:38;;;;;;;10.02;8.07;;;10.90;81.80;;;;;;5052436;28;20051;-81
2023/10/30 07:51:04;;;;;;;8.45;7.47;;;11.10;81.50;;;;;;5052722;28;20033;-79
2023/10/30 07:53:30;;;;;;;10.50;8.60;;;11.20;80.80;;;;;;5052142;28;20029;-78
2023/10/30 07:55:56;;;;;;;10.70;8.00;;;11.30;80.30;;;;;;5054484;28;20028;-78
2023/10/30 07:58:22;;;;;;;9.60;8.50;;;11.40;79.90;;;;;;5056030;28;20025;-78
2023/10/30 08:00:48;;;;;;;9.98;8.45;;;11.50;79.40;;;;;;5056343;28;20089;-76
2023/10/30 08:03:14;;;;;;;9.65;7.78;;;11.60;78.90;;;;;;5055653;28;20021;-77
2023/10/30 08:05:40;;;;;;;13.13;8.52;;;11.70;78.50;;;;;;5051227;28;20108;-79
2023/10/30 08:08:06;;;;;;;10.63;9.13;;;11.90;77.90;;;;;;5052509;28;20029;-78
2023/10/30 08:10:31;;;;;;;8.68;7.78;;;12.00;77.50;;;;;;5052379;28;20060;-78
2023/10/30 08:12:58;;;;;;;9.95;8.95;;;12.20;77.10;;;;;;5056274;28;20029;-80
2023/10/30 08:15:23;;;;;;;10.20;8.90;;;12.30;76.60;;;;;;5055983;28;20017;-77
2023/10/30 08:17:49;;;;;;;10.80;8.45;;;12.40;77.00;;;;;;5054661;28;20135;-79
2023/10/30 08:20:14;;;;;;;10.02;8.65;;;12.40;76.00;;;;;;5056099;28;20021;-78
2023/10/30 08:22:40;;;;;;;10.32;8.68;;;12.50;75.80;;;;;;5056099;28;20504;-78
2023/10/30 08:25:06;;;;;;;9.30;8.40;;;12.60;75.80;;;;;;5055706;28;20017;-72
2023/10/30 08:27:32;;;;;;;9.50;8.27;;;12.60;75.70;;;;;;5055547;28;20029;-75
2023/10/30 08:29:58;;;;;;;8.40;7.60;;;12.80;75.40;;;;;;5055510;28;20033;-80
2023/10/30 08:32:23;;;;;;;7.97;7.15;;;12.90;75.70;;;;;;5055739;28;20028;-80
2023/10/30 08:34:49;;;;;;;9.43;7.30;;;13.10;74.30;;;;;;5054085;28;20090;-77
2023/10/30 08:37:15;;;;;;;7.78;6.63;;;13.20;73.20;;;;;;5055528;28;20021;-76
2023/10/30 08:39:40;;;;;;;9.15;7.70;;;13.30;73.10;;;;;;5055298;28;20044;-78
2023/10/30 08:42:06;;;;;;;10.00;6.88;;;13.30;72.70;;;;;;5055288;28;20029;-81
2023/10/30 08:44:32;;;;;;;12.45;7.30;;;13.30;72.70;;;;;;5055390;28;20394;-79
2023/10/30 08:46:58;;;;;;;10.52;7.07;;;13.40;73.70;;;;;;5054121;28;20033;-80
2023/10/30 08:49:25;;;;;;;10.50;6.63;;;13.40;73.80;;;;;;5055726;28;20025;-83
2023/10/30 08:51:50;;;;;;;9.68;6.72;;;13.70;73.10;;;;;;5055988;28;20590;-85
2023/10/30 08:54:16;;;;;;;7.68;6.20;;;13.70;72.20;;;;;;5053976;28;20052;-80
2023/10/30 08:56:42;;;;;;;9.07;6.10;;;13.80;71.20;;;;;;5055460;28;20029;-77
2023/10/30 08:59:08;;;;;;;8.85;6.15;;;13.90;71.10;;;;;;5055409;28;20091;-75
2023/10/30 09:01:34;;;;;;;7.43;5.75;;;14.00;71.50;;;;;;5055442;28;20044;-72
2023/10/30 09:04:00;;;;;;;7.70;5.25;;;14.20;69.50;;;;;;5055119;28;20465;-77
2023/10/30 09:06:26;;;;;;;8.45;4.90;;;14.20;69.40;;;;;;5053404;28;20017;-75
2023/10/30 09:08:52;;;;;;;10.30;5.18;;;14.30;69.80;;;;;;5053388;28;20576;-78
2023/10/30 09:11:18;;;;;;;8.52;4.78;;;14.30;69.20;;;;;;5053460;28;20101;-77
2023/10/30 09:13:44;;;;;;;7.65;5.47;;;14.40;69.50;;;;;;5055162;28;20654;-81
2023/10/30 09:16:11;;;;;;;8.38;5.65;;;14.50;68.80;;;;;;5054992;28;20033;-76
2023/10/30 09:18:37;;;;;;;7.22;5.00;;;14.50;68.70;;;;;;5053232;28;20050;-80
2023/10/30 09:21:03;;;;;;;8.93;5.47;;;14.30;68.70;;;;;;5054199;28;20081;-80
2023/10/30 09:23:29;;;;;;;7.93;4.85;;;14.10;70.00;;;;;;5054789;28;20477;-76
2023/10/30 09:25:54;;;;;;;8.98;5.03;;;14.10;70.10;;;;;;5054571;28;20043;-73
2023/10/30 09:28:20;;;;;;;8.88;4.18;;;14.00;70.30;;;;;;5054459;28;20389;-71
2023/10/30 09:30:45;;;;;;;7.53;4.50;;;13.80;71.00;;;;;;5054534;28;20072;-75
2023/10/30 09:33:11;;;;;;;5.30;4.57;;;13.80;71.30;;;;;;5054405;28;20071;-74
2023/10/30 09:35:38;;;;;;;5.68;4.28;;;13.80;71.10;;;;;;5054472;28;20497;-77
2023/10/30 09:38:04;;;;;;;12.00;4.93;;;13.80;71.50;;;;;;5054446;28;20021;-75
2023/10/30 09:40:30;;;;;;;9.48;5.13;;;13.70;71.80;;;;;;5054032;28;20025;-77
2023/10/30 09:42:55;;;;;;;5.30;4.05;;;13.70;72.40;;;;;;5053968;28;20036;-78
2023/10/30 09:45:23;;;;;;;6.28;4.22;;;13.70;72.10;;;;;;5054043;28;20067;-75
2023/10/30 09:47:54;;;;;;;9.35;4.35;;;13.70;72.10;;;;;;5054017;28;20021;-78
2023/10/30 09:50:20;;;;;;;4.65;4.20;;;13.70;71.60;;;;;;5054000;28;20037;-75
2023/10/30 09:52:51;;;;;;;11.02;4.22;;;13.70;71.90;;;;;;5054078;28;20096;-74
2023/10/30 09:55:18;;;;;;;6.95;4.43;;;13.80;71.90;;;;;;5052771;28;20439;-77
2023/10/30 09:57:47;;;;;;;8.32;4.00;;;13.80;71.70;;;;;;5052873;28;20083;-73
2023/10/30 10:00:14;;;;;;;8.15;4.50;;;13.80;71.90;;;;;;5052679;28;20033;-79
2023/10/30 10:02:41;;;;;;;6.28;4.13;;;13.80;71.80;;;;;;5053839;28;20021;-79
2023/10/30 10:05:08;;;;;;;8.80;4.15;;;13.80;71.70;;;;;;5053659;28;20095;-79
2023/10/30 10:07:34;;;;;;;4.78;3.67;;;13.80;71.80;;;;;;5051752;28;20060;-81
2023/10/30 10:10:01;;;;;;;5.63;3.80;;;13.90;71.90;;;;;;5051978;28;20434;-78
2023/10/30 10:12:28;;;;;;;5.10;3.53;;;13.90;72.00;;;;;;5053603;28;20113;-81
2023/10/30 10:14:54;;;;;;;9.10;4.25;;;14.00;71.40;;;;;;5054706;28;20540;-80
2023/10/30 10:17:19;;;;;;;7.53;3.88;;;14.00;71.20;;;;;;5054580;28;20067;-80
2023/10/30 10:19:46;;;;;;;7.40;3.70;;;14.00;71.10;;;;;;5053415;28;20086;-77
2023/10/30 10:22:29;;;;;;;5.85;3.30;;;13.90;71.30;;;;;;5053468;28;20119;-75
2023/10/30 10:24:56;;;;;;;5.32;3.40;;;13.90;71.30;;;;;;5052262;28;20089;-77
2023/10/30 10:27:23;;;;;;;7.35;2.92;;;13.90;70.90;;;;;;5052164;28;20028;-77
2023/10/30 10:29:55;;;;;;;4.57;2.95;;;13.90;71.00;;;;;;5051833;28;20545;-71
2023/10/30 10:32:28;;;;;;;6.22;3.38;;;13.90;70.90;;;;;;5052447;28;20035;-75
2023/10/30 10:34:57;;;;;;;4.30;3.20;;;14.00;70.70;;;;;;5053072;28;20086;-74
2023/10/30 10:37:23;;;;;;;5.22;2.58;;;14.00;70.50;;;;;;5053055;28;20112;-72
2023/10/30 10:39:50;;;;;;;5.60;2.70;;;14.00;70.40;;;;;;5052897;28;20059;-72
2023/10/30 10:42:20;;;;;;;3.80;2.80;;;14.00;70.30;;;;;;5052907;28;20532;-70
2023/10/30 10:44:46;;;;;;;10.50;3.00;;;14.10;70.50;;;;;;5053040;28;20029;-78
2023/10/30 10:47:12;;;;;;;4.35;2.85;;;14.00;70.60;;;;;;5052767;28;20483;-72
2023/10/30 10:49:38;;;;;;;6.65;2.60;;;14.00;71.20;;;;;;5052946;28;20055;-72
2023/10/30 10:52:12;;;;;;;3.03;2.38;;;14.00;70.40;;;;;;5052794;28;20381;-71
2023/10/30 10:55:02;;;;;;;3.42;2.63;;;14.00;70.70;;;;;;5052883;28;20052;-72
2023/10/30 10:57:34;;;;;;;3.42;2.35;;;14.00;69.90;;;;;;5052940;28;20017;-75
2023/10/30 11:00:06;;;;;;;4.40;2.38;;;14.10;69.80;;;;;;5052682;28;20036;-74
2023/10/30 11:02:34;;;;;;;3.97;2.10;;;14.10;69.60;;;;;;5052648;28;20120;-75
2023/10/30 11:05:00;;;;;;;4.78;2.25;;;14.20;69.20;;;;;;5052674;28;20021;-72
2023/10/30 11:07:38;;;;;;;6.30;2.58;;;14.20;69.30;;;;;;5051088;28;20021;-72
2023/10/30 11:10:16;;;;;;;4.30;2.72;;;14.20;69.40;;;;;;5052377;28;20090;-76
2023/10/30 11:12:47;;;;;;;3.75;2.17;;;14.30;69.50;;;;;;5052693;28;20079;-76
2023/10/30 11:15:13;;;;;;;4.00;2.53;;;14.40;69.20;;;;;;5052688;28;20032;-71
2023/10/30 11:17:38;;;;;;;4.03;2.55;;;14.40;68.90;;;;;;5052298;28;20021;-71
2023/10/30 11:20:10;;;;;;;3.83;2.50;;;14.50;68.30;;;;;;5052330;28;20028;-79
2023/10/30 11:22:40;;;;;;;3.55;2.00;;;14.70;68.00;;;;;;5052902;28;20495;-80
2023/10/30 11:25:26;;;;;;;3.78;2.58;;;14.80;66.90;;;;;;5051901;28;20470;-74
2023/10/30 11:27:52;;;;;;;;;;;15.10;66.10;;;;;;5051485;28;20100;-79
2023/10/30 11:30:22;;;;;;;5.03;2.83;;;15.20;65.40;;;;;;5051769;28;20468;-71
2023/10/30 11:32:48;;;;;;;6.03;2.83;;;15.50;64.60;;;;;;5071220;28;20465;-75
2023/10/30 11:35:13;;;;;;;4.05;2.20;;;15.80;63.40;;;;;;5072410;28;20029;-73
2023/10/30 11:37:40;;;;;;;4.45;2.17;;;16.00;62.50;;;;;;5072102;28;20103;-72
2023/10/30 11:40:07;;;;;;;3.75;2.08;;;16.40;61.60;;;;;;5070700;28;20036;-72
2023/10/30 11:42:39;;;;;;;3.00;2.03;;;16.60;60.20;;;;;;5070875;28;20078;-72
2023/10/30 11:45:22;;;;;;;3.05;1.83;;;16.70;59.70;;;;;;5073565;28;20428;-73
2023/10/30 11:47:55;;;;;;;2.47;1.48;;;16.80;59.20;;;;;;5076270;28;20028;-76
2023/10/30 11:50:27;;;;;;;3.60;1.50;;;16.70;59.00;;;;;;5076347;28;20056;-73
2023/10/30 11:52:53;;;;;;;1.73;1.25;;;16.60;59.10;;;;;;5075051;28;20024;-72
2023/10/30 11:55:19;;;;;;;1.80;1.25;;;16.40;58.50;;;;;;5076026;28;20035;-71
2023/10/30 11:57:44;;;;;;;2.25;1.30;;;16.30;58.60;;;;;;5075070;28;20025;-72
2023/10/30 12:00:11;;;;;;;1.80;1.25;;;16.20;59.00;;;;;;5076218;28;20362;-70
2023/10/30 12:02:40;;;;;;;1.33;1.13;;;16.10;59.50;;;;;;5075795;28;20024;-71
2023/10/30 12:05:07;;;;;;;2.63;1.00;;;16.10;59.60;;;;;;5076018;28;20051;-71
2023/10/30 12:07:32;;;;;;;5.32;1.75;;;16.00;59.70;;;;;;5075479;28;20492;-72
2023/10/30 12:10:02;;;;;;;2.38;1.67;;;15.90;60.20;;;;;;5074599;28;20043;-71
2023/10/30 12:12:27;;;;;;;2.65;1.50;;;15.80;60.60;;;;;;5075889;28;20485;-73
2023/10/30 12:14:57;;;;;;;2.88;1.55;;;15.80;60.80;;;;;;5076167;28;20028;-71
2023/10/30 12:17:22;;;;;;;3.13;1.60;;;15.80;60.90;;;;;;5076721;28;20028;-71
2023/10/30 12:19:48;;;;;;;3.42;1.40;;;15.90;60.90;;;;;;5077450;28;20031;-71
2023/10/30 12:22:14;;;;;;;4.07;1.48;;;16.00;60.30;;;;;;5075828;28;20025;-71
2023/10/30 12:24:40;;;;;;;3.95;1.40;;;16.10;60.20;;;;;;5075623;28;20035;-71
2023/10/30 12:27:05;;;;;;;4.55;1.50;;;16.10;59.70;;;;;;5075935;28;20136;-72
2023/10/30 12:29:32;;;;;;;5.35;1.73;;;16.10;59.70;;;;;;5075848;28;20033;-72
2023/10/30 12:32:04;;;;;;;2.58;1.30;;;16.20;59.70;;;;;;5075804;28;20035;-72
2023/10/30 12:34:35;;;;;;;2.72;1.30;;;16.20;59.70;;;;;;5075903;28;20025;-72
2023/10/30 12:37:25;;;;;;;3.75;1.50;;;16.20;59.80;;;;;;5074252;28;20409;-74
2023/10/30 12:40:00;;;;;;;2.88;1.63;;;16.20;60.10;;;;;;5075857;28;20385;-74
2023/10/30 12:42:27;;;;;;;5.18;1.33;;;16.00;61.20;;;;;;5074491;28;20025;-70